Time;durP1;ratioP1;P1;durP2;ratioP2;P2;SDS_P1;SDS_P2;PMS_P1;PMS_P2;Temp;Humidity;BMP_temperature;BMP_pressure;BME280_temperature;BME280_humidity;BME280_pressure;Samples;Min_cycle;Max_cycle;Signal;HPM_P1;HPM_P2
2021/07/10 00:01:46;;;;;;;2.05;1.70;;;17.60;99.90;;;;;;5079288;28;20557;-58
2021/07/10 00:04:13;;;;;;;2.88;2.10;;;17.40;99.90;;;;;;5076135;28;20510;-58
2021/07/10 00:06:41;;;;;;;3.60;2.03;;;17.30;99.90;;;;;;5076179;28;20842;-58
2021/07/10 00:09:08;;;;;;;2.50;1.85;;;17.20;99.90;;;;;;5075392;28;20451;-58
2021/07/10 00:11:35;;;;;;;2.55;1.83;;;17.10;99.90;;;;;;5075006;28;20518;-59
2021/07/10 00:14:02;;;;;;;2.30;1.60;;;17.00;99.90;;;;;;5073060;28;20936;-59
2021/07/10 00:16:28;;;;;;;1.70;1.50;;;16.90;99.90;;;;;;5073832;28;20775;-59
2021/07/10 00:18:55;;;;;;;1.98;1.75;;;16.90;99.90;;;;;;5073962;28;20793;-59
2021/07/10 00:21:22;;;;;;;2.00;1.70;;;16.90;99.90;;;;;;5073973;28;20459;-60
2021/07/10 00:23:50;;;;;;;2.08;1.50;;;16.90;99.90;;;;;;5073910;28;20522;-59
2021/07/10 00:26:17;;;;;;;2.00;1.30;;;16.90;99.90;;;;;;5073970;28;20901;-59
2021/07/10 00:28:44;;;;;;;2.90;1.45;;;17.00;99.90;;;;;;5074310;28;20450;-58
2021/07/10 00:31:11;;;;;;;2.00;1.50;;;17.00;99.90;;;;;;5075084;28;20423;-59
2021/07/10 00:33:38;;;;;;;1.60;1.30;;;17.00;99.90;;;;;;5075224;28;20538;-59
2021/07/10 00:36:05;;;;;;;1.60;1.40;;;17.00;99.90;;;;;;5075626;28;20466;-59
2021/07/10 00:38:32;;;;;;;3.55;1.50;;;17.00;99.90;;;;;;5075409;28;20488;-58
2021/07/10 00:41:00;;;;;;;1.90;1.30;;;16.90;99.90;;;;;;5075619;28;20913;-58
2021/07/10 00:43:27;;;;;;;1.80;1.40;;;16.90;99.90;;;;;;5075710;28;20914;-58
2021/07/10 00:45:54;;;;;;;1.65;1.45;;;16.80;99.90;;;;;;5076091;28;20470;-58
2021/07/10 00:48:21;;;;;;;3.03;1.50;;;16.80;99.90;;;;;;5075960;28;20518;-59
2021/07/10 00:50:48;;;;;;;2.40;1.60;;;16.70;99.90;;;;;;5075732;28;20514;-58
2021/07/10 00:53:15;;;;;;;1.73;1.60;;;16.70;99.90;;;;;;5075425;28;20512;-57
2021/07/10 00:55:43;;;;;;;2.30;1.50;;;16.60;99.90;;;;;;5076382;28;20475;-59
2021/07/10 00:58:12;;;;;;;2.10;1.85;;;16.50;99.90;;;;;;5075342;28;20420;-58
2021/07/10 01:00:40;;;;;;;2.00;1.40;;;16.50;99.90;;;;;;5075803;28;20415;-58
2021/07/10 01:03:07;;;;;;;1.95;1.70;;;16.40;99.90;;;;;;5075472;28;20491;-58
2021/07/10 01:05:35;;;;;;;2.03;1.50;;;16.40;99.90;;;;;;5075080;28;20512;-58
2021/07/10 01:08:02;;;;;;;2.70;1.50;;;16.40;99.90;;;;;;5075281;28;20423;-59
2021/07/10 01:10:29;;;;;;;1.50;1.40;;;16.40;99.90;;;;;;5074708;28;20506;-59
2021/07/10 01:12:57;;;;;;;1.50;1.40;;;16.50;99.90;;;;;;5074840;28;20502;-58
2021/07/10 01:15:26;;;;;;;2.05;1.40;;;16.50;99.90;;;;;;5075526;28;20428;-58
2021/07/10 01:17:57;;;;;;;1.70;1.30;;;16.60;99.90;;;;;;5075683;28;20870;-59
2021/07/10 01:20:25;;;;;;;2.20;1.40;;;16.60;99.90;;;;;;5074502;28;20427;-60
2021/07/10 01:22:54;;;;;;;1.50;1.17;;;16.60;99.90;;;;;;5074161;28;20719;-58
2021/07/10 01:25:23;;;;;;;1.88;1.30;;;16.70;99.90;;;;;;5074204;28;20522;-58
2021/07/10 01:27:51;;;;;;;3.05;1.38;;;16.70;99.90;;;;;;5074011;28;20426;-58
2021/07/10 01:30:20;;;;;;;1.70;1.30;;;16.80;99.90;;;;;;5073997;28;20893;-58
2021/07/10 01:32:49;;;;;;;3.70;1.38;;;16.70;99.90;;;;;;5073754;28;20518;-59
2021/07/10 01:35:17;;;;;;;2.60;1.60;;;16.50;99.90;;;;;;5074651;28;20961;-58
2021/07/10 01:37:44;;;;;;;1.88;1.50;;;16.30;99.90;;;;;;5075243;28;20498;-58
2021/07/10 01:40:15;;;;;;;2.67;2.00;;;16.20;99.90;;;;;;5074522;28;20527;-57
2021/07/10 01:42:43;;;;;;;2.60;1.70;;;16.00;99.90;;;;;;5074931;28;20515;-57
2021/07/10 01:45:11;;;;;;;1.75;1.48;;;15.80;99.90;;;;;;5074893;28;20423;-57
2021/07/10 01:47:38;;;;;;;2.60;1.80;;;15.70;99.90;;;;;;5074812;28;20455;-58
2021/07/10 01:50:06;;;;;;;2.00;1.60;;;15.70;99.90;;;;;;5074949;28;20505;-57
2021/07/10 01:52:34;;;;;;;2.22;1.60;;;15.70;99.90;;;;;;5074973;28;20427;-58
2021/07/10 01:55:02;;;;;;;3.85;1.60;;;15.80;99.90;;;;;;5074432;28;20526;-59
2021/07/10 01:57:30;;;;;;;3.45;1.60;;;15.80;99.90;;;;;;5074895;28;20518;-58
2021/07/10 01:59:57;;;;;;;1.80;1.70;;;15.90;99.90;;;;;;5074438;28;20902;-58
2021/07/10 02:02:24;;;;;;;1.75;1.52;;;15.90;99.90;;;;;;5074645;28;20503;-58
2021/07/10 02:04:52;;;;;;;2.30;1.50;;;16.00;99.90;;;;;;5073822;28;20847;-57
2021/07/10 02:07:20;;;;;;;2.28;1.60;;;16.00;99.90;;;;;;5075348;28;20430;-58
2021/07/10 02:09:47;;;;;;;1.90;1.60;;;16.00;99.90;;;;;;5074804;28;20799;-58
2021/07/10 02:12:14;;;;;;;1.90;1.70;;;16.10;99.90;;;;;;5074520;28;20420;-58
2021/07/10 02:14:43;;;;;;;1.70;1.48;;;16.20;99.90;;;;;;5074220;28;20981;-58
2021/07/10 02:17:09;;;;;;;2.10;1.60;;;16.20;99.90;;;;;;5073044;28;20510;-58
2021/07/10 02:19:36;;;;;;;1.90;1.50;;;16.30;99.90;;;;;;5074007;28;20598;-58
2021/07/10 02:22:05;;;;;;;1.70;1.60;;;16.40;99.90;;;;;;5074996;28;20823;-58
2021/07/10 02:24:32;;;;;;;3.80;1.70;;;16.40;99.90;;;;;;5074052;28;20454;-58
2021/07/10 02:26:59;;;;;;;2.08;1.40;;;16.40;99.90;;;;;;5075331;28;20463;-58
2021/07/10 02:29:26;;;;;;;1.80;1.50;;;16.50;99.90;;;;;;5072781;28;20894;-59
2021/07/10 02:31:54;;;;;;;2.25;1.40;;;16.40;99.90;;;;;;5073208;28;20485;-59
2021/07/10 02:34:21;;;;;;;2.50;1.70;;;16.40;99.90;;;;;;5074190;28;20438;-58
2021/07/10 02:36:48;;;;;;;1.97;1.40;;;16.40;99.90;;;;;;5074198;28;20420;-58
2021/07/10 02:39:15;;;;;;;3.00;1.60;;;16.30;99.90;;;;;;5074398;28;20488;-59
2021/07/10 02:41:41;;;;;;;2.90;1.40;;;16.30;99.90;;;;;;5074543;28;20514;-58
2021/07/10 02:44:08;;;;;;;1.80;1.33;;;16.30;99.90;;;;;;5074221;28;20424;-58
2021/07/10 02:46:35;;;;;;;2.30;1.40;;;16.30;99.90;;;;;;5074168;28;20447;-57
2021/07/10 02:49:04;;;;;;;1.60;1.20;;;16.30;99.90;;;;;;5073633;28;20455;-58
2021/07/10 02:51:31;;;;;;;2.10;1.30;;;16.30;99.90;;;;;;5074588;28;20507;-58
2021/07/10 02:53:58;;;;;;;1.50;1.40;;;16.20;99.90;;;;;;5073883;28;20463;-58
2021/07/10 02:56:26;;;;;;;1.67;1.25;;;16.10;99.90;;;;;;5074424;28;20415;-58
2021/07/10 02:58:53;;;;;;;2.28;1.30;;;16.00;99.90;;;;;;5074016;28;20502;-58
2021/07/10 03:01:21;;;;;;;3.25;1.40;;;16.00;99.90;;;;;;5073680;28;20514;-57
2021/07/10 03:03:48;;;;;;;2.00;1.40;;;16.00;99.90;;;;;;5074298;28;20463;-59
2021/07/10 03:06:16;;;;;;;1.50;1.30;;;16.10;99.90;;;;;;5073802;28;20495;-59
2021/07/10 03:08:44;;;;;;;1.60;1.20;;;16.10;99.90;;;;;;5073621;28;20796;-59
2021/07/10 03:11:12;;;;;;;1.60;1.30;;;16.20;99.90;;;;;;5073794;28;20423;-59
2021/07/10 03:13:39;;;;;;;1.50;1.20;;;16.30;99.90;;;;;;5073636;28;20463;-58
2021/07/10 03:16:06;;;;;;;2.80;1.30;;;16.30;99.90;;;;;;5074453;28;20914;-59
2021/07/10 03:18:33;;;;;;;1.40;1.30;;;16.30;99.90;;;;;;5073503;28;20470;-58
2021/07/10 03:21:01;;;;;;;1.35;1.10;;;16.40;99.90;;;;;;5073894;28;20847;-59
2021/07/10 03:23:29;;;;;;;1.70;1.30;;;16.50;99.90;;;;;;5073420;28;20507;-60
2021/07/10 03:25:56;;;;;;;2.20;1.40;;;16.50;99.90;;;;;;5073940;28;20764;-59
2021/07/10 03:28:23;;;;;;;1.60;1.20;;;16.40;99.90;;;;;;5074560;28;20431;-58
2021/07/10 03:30:52;;;;;;;1.50;1.20;;;16.30;99.90;;;;;;5076987;28;20426;-58
2021/07/10 03:33:19;;;;;;;2.00;1.20;;;16.20;99.90;;;;;;5077309;28;20431;-58
2021/07/10 03:35:47;;;;;;;2.03;1.40;;;16.10;99.90;;;;;;5076725;28;20525;-58
2021/07/10 03:38:14;;;;;;;1.80;1.25;;;16.00;99.90;;;;;;5075647;28;20502;-60
2021/07/10 03:40:42;;;;;;;1.50;1.23;;;16.00;99.90;;;;;;5075840;28;20890;-60
2021/07/10 03:43:09;;;;;;;1.92;1.20;;;16.00;99.90;;;;;;5076066;28;20595;-60
2021/07/10 03:45:36;;;;;;;2.30;1.50;;;16.10;99.90;;;;;;5076506;28;20507;-59
2021/07/10 03:48:04;;;;;;;1.52;1.30;;;16.10;99.90;;;;;;5075252;28;20504;-59
2021/07/10 03:50:31;;;;;;;2.55;1.30;;;16.10;99.90;;;;;;5076179;28;20894;-60
2021/07/10 03:52:58;;;;;;;1.70;1.20;;;16.10;99.90;;;;;;5076953;28;20462;-59
2021/07/10 03:55:24;;;;;;;1.40;1.30;;;16.10;99.90;;;;;;5076644;28;20913;-59
2021/07/10 03:57:53;;;;;;;2.00;1.42;;;16.10;99.90;;;;;;5076876;28;20507;-59
2021/07/10 04:00:23;;;;;;;2.30;1.60;;;16.10;99.90;;;;;;5075863;28;20739;-60
2021/07/10 04:02:50;;;;;;;3.08;1.63;;;16.00;99.90;;;;;;5076299;28;20416;-59
2021/07/10 04:05:18;;;;;;;1.90;1.20;;;15.90;99.90;;;;;;5076807;28;20526;-59
2021/07/10 04:07:45;;;;;;;2.17;1.50;;;16.00;99.90;;;;;;5076239;28;20527;-60
2021/07/10 04:10:13;;;;;;;1.70;1.30;;;16.00;99.90;;;;;;5076447;28;20734;-60
2021/07/10 04:12:40;;;;;;;1.60;1.30;;;16.00;99.90;;;;;;5076489;28;20462;-59
2021/07/10 04:15:11;;;;;;;1.55;1.30;;;16.10;99.90;;;;;;5075891;28;20467;-59
2021/07/10 04:17:39;;;;;;;1.73;1.50;;;16.10;99.90;;;;;;5076274;28;20977;-59
2021/07/10 04:20:07;;;;;;;2.33;1.40;;;16.10;99.90;;;;;;5076461;28;20451;-59
2021/07/10 04:22:34;;;;;;;2.08;1.40;;;16.00;99.90;;;;;;5076680;28;20891;-60
2021/07/10 04:25:04;;;;;;;2.40;1.35;;;16.10;99.90;;;;;;5075943;28;20910;-59
2021/07/10 04:27:31;;;;;;;3.37;1.40;;;16.10;99.90;;;;;;5076418;28;20420;-59
2021/07/10 04:29:58;;;;;;;1.60;1.30;;;16.20;99.90;;;;;;5076114;28;20522;-59
2021/07/10 04:32:27;;;;;;;2.00;1.30;;;16.20;99.90;;;;;;5076784;28;20518;-59
2021/07/10 04:34:54;;;;;;;2.30;1.58;;;16.30;99.90;;;;;;5076125;28;20435;-59
2021/07/10 04:37:21;;;;;;;1.83;1.40;;;16.50;99.90;;;;;;5076014;28;20442;-60
2021/07/10 04:39:48;;;;;;;2.60;1.63;;;16.60;99.90;;;;;;5075829;28;20788;-60
2021/07/10 04:42:15;;;;;;;1.70;1.50;;;16.60;99.90;;;;;;5076329;28;20843;-59
2021/07/10 04:44:42;;;;;;;2.80;1.40;;;16.60;99.90;;;;;;5076118;28;20433;-60
2021/07/10 04:47:10;;;;;;;2.00;1.50;;;16.60;99.90;;;;;;5076218;28;20422;-59
2021/07/10 04:49:38;;;;;;;1.55;1.30;;;16.60;99.90;;;;;;5075535;28;20522;-59
2021/07/10 04:52:06;;;;;;;2.13;1.90;;;16.60;99.90;;;;;;5076585;28;20507;-59
2021/07/10 04:54:33;;;;;;;2.70;1.90;;;16.60;99.90;;;;;;5075388;28;20470;-58
2021/07/10 04:57:00;;;;;;;3.72;1.95;;;16.60;99.90;;;;;;5075416;28;20518;-60
2021/07/10 04:59:26;;;;;;;3.10;1.80;;;16.60;99.90;;;;;;5074834;28;20431;-59
2021/07/10 05:01:53;;;;;;;4.60;1.60;;;16.50;99.90;;;;;;5074190;28;20519;-60
2021/07/10 05:04:20;;;;;;;2.10;1.80;;;16.50;99.90;;;;;;5074888;28;20534;-57
2021/07/10 05:06:48;;;;;;;1.70;1.40;;;16.50;99.90;;;;;;5075583;28;20960;-58
2021/07/10 05:09:15;;;;;;;2.03;1.50;;;16.60;99.90;;;;;;5085661;28;20517;-58
2021/07/10 05:11:42;;;;;;;2.83;2.00;;;16.60;99.90;;;;;;5094347;28;20475;-58
2021/07/10 05:14:09;;;;;;;2.30;1.70;;;16.60;99.90;;;;;;5077876;28;20783;-58
2021/07/10 05:16:36;;;;;;;1.90;1.70;;;16.70;99.90;;;;;;5077456;28;20951;-59
2021/07/10 05:19:05;;;;;;;3.10;1.63;;;16.70;99.90;;;;;;5072008;28;20467;-59
2021/07/10 05:21:32;;;;;;;2.20;1.50;;;16.80;99.90;;;;;;5075256;28;20423;-58
2021/07/10 05:24:00;;;;;;;1.92;1.73;;;16.90;99.90;;;;;;5074131;28;20811;-59
2021/07/10 05:26:27;;;;;;;2.17;1.50;;;17.00;99.90;;;;;;5075168;28;20439;-59
2021/07/10 05:28:54;;;;;;;3.63;1.80;;;17.10;99.90;;;;;;5073984;28;20510;-59
2021/07/10 05:31:21;;;;;;;2.00;1.48;;;17.20;99.90;;;;;;5072290;28;20526;-60
2021/07/10 05:33:48;;;;;;;2.05;1.85;;;17.10;99.90;;;;;;5073508;28;20530;-59
2021/07/10 05:36:15;;;;;;;1.55;1.30;;;17.00;99.90;;;;;;5074641;28;20522;-59
2021/07/10 05:38:44;;;;;;;2.60;1.90;;;17.00;99.90;;;;;;5073016;28;20427;-58
2021/07/10 05:41:12;;;;;;;2.30;1.98;;;17.00;99.90;;;;;;5074034;28;20430;-59
2021/07/10 05:43:39;;;;;;;1.80;1.47;;;17.10;99.90;;;;;;5074195;28;20431;-60
2021/07/10 05:46:06;;;;;;;2.40;1.60;;;17.00;99.90;;;;;;5074154;28;20774;-59
2021/07/10 05:48:33;;;;;;;2.45;2.15;;;17.00;99.90;;;;;;5074150;28;20878;-59
2021/07/10 05:51:00;;;;;;;2.95;1.80;;;17.00;99.90;;;;;;5073348;28;20423;-59
2021/07/10 05:53:26;;;;;;;2.70;1.80;;;17.10;99.90;;;;;;5084773;28;20805;-58
2021/07/10 05:55:53;;;;;;;2.67;1.88;;;17.10;99.90;;;;;;5095087;28;20525;-59
2021/07/10 05:58:22;;;;;;;1.70;1.60;;;17.10;99.90;;;;;;5085042;28;20467;-59
2021/07/10 06:00:48;;;;;;;2.40;2.20;;;17.20;99.90;;;;;;5072701;28;20498;-59
2021/07/10 06:03:15;;;;;;;2.40;2.05;;;17.30;99.90;;;;;;5072489;28;20810;-59
2021/07/10 06:05:42;;;;;;;3.40;2.10;;;17.40;99.90;;;;;;5077952;28;20855;-59
2021/07/10 06:08:09;;;;;;;2.30;2.10;;;17.40;99.90;;;;;;5089860;28;20833;-59
2021/07/10 06:10:36;;;;;;;1.70;1.60;;;17.40;99.90;;;;;;5093493;28;20488;-59
2021/07/10 06:13:03;;;;;;;1.90;1.65;;;17.40;99.90;;;;;;5081449;28;20820;-59
2021/07/10 06:15:31;;;;;;;1.70;1.60;;;17.50;99.90;;;;;;5074953;28;20467;-58
2021/07/10 06:17:58;;;;;;;2.05;1.60;;;17.50;99.90;;;;;;5082868;28;20677;-58
2021/07/10 06:20:25;;;;;;;2.10;1.80;;;17.50;99.90;;;;;;5093279;28;20452;-58
2021/07/10 06:22:53;;;;;;;2.53;1.83;;;17.60;99.90;;;;;;5079826;28;20844;-58
2021/07/10 06:25:21;;;;;;;2.20;1.70;;;17.60;99.90;;;;;;5075013;28;20507;-58
2021/07/10 06:27:49;;;;;;;1.90;1.67;;;17.60;99.90;;;;;;5087789;28;20422;-59
2021/07/10 06:30:18;;;;;;;2.20;1.60;;;17.70;99.90;;;;;;5093527;28;20537;-59
2021/07/10 06:32:46;;;;;;;2.80;1.50;;;17.80;99.90;;;;;;5079268;28;20428;-59
2021/07/10 06:35:13;;;;;;;6.80;2.00;;;17.90;99.90;;;;;;5072492;28;20466;-59
2021/07/10 06:37:40;;;;;;;1.98;1.77;;;17.90;99.90;;;;;;5085816;28;20808;-59
2021/07/10 06:40:12;;;;;;;1.67;1.35;;;17.90;99.90;;;;;;5087522;28;20818;-58
2021/07/10 06:42:39;;;;;;;1.70;1.20;;;18.00;99.90;;;;;;5074235;28;20485;-59
2021/07/10 06:45:08;;;;;;;2.72;1.30;;;18.10;99.90;;;;;;5079199;28;20511;-49
2021/07/10 06:47:35;;;;;;;1.70;1.60;;;18.30;99.90;;;;;;5090936;28;20493;-53
2021/07/10 06:50:06;;;;;;;1.80;1.48;;;18.50;99.90;;;;;;5091429;28;20430;-53
2021/07/10 06:52:33;;;;;;;2.63;1.80;;;18.60;99.90;;;;;;5089922;28;20826;-51
2021/07/10 06:55:00;;;;;;;1.65;1.35;;;18.60;99.90;;;;;;5074327;28;20518;-52
2021/07/10 06:57:27;;;;;;;3.03;1.50;;;18.80;99.90;;;;;;5085079;28;20652;-49
2021/07/10 06:59:54;;;;;;;2.10;1.52;;;19.00;99.90;;;;;;5090822;28;20695;-55
2021/07/10 07:02:21;;;;;;;1.95;1.40;;;19.00;99.90;;;;;;5071886;28;20430;-51
2021/07/10 07:04:48;;;;;;;1.85;1.70;;;19.00;99.90;;;;;;5075253;28;20463;-56
2021/07/10 07:07:16;;;;;;;1.80;1.40;;;19.00;99.90;;;;;;5075716;28;20459;-55
2021/07/10 07:09:43;;;;;;;2.20;1.50;;;19.10;99.90;;;;;;5076259;28;20543;-56
2021/07/10 07:12:10;;;;;;;1.38;1.15;;;19.30;99.90;;;;;;5090727;28;20473;-56
2021/07/10 07:14:37;;;;;;;1.50;1.40;;;19.40;99.90;;;;;;5074984;28;20431;-53
2021/07/10 07:17:04;;;;;;;1.92;1.20;;;19.50;99.90;;;;;;5076038;28;20527;-54
2021/07/10 07:19:31;;;;;;;1.90;1.30;;;19.70;99.90;;;;;;5076997;28;20950;-57
2021/07/10 07:21:58;;;;;;;1.55;1.20;;;19.70;99.90;;;;;;5076452;28;20518;-56
2021/07/10 07:24:27;;;;;;;1.90;1.10;;;19.80;99.90;;;;;;5082334;28;20497;-57
2021/07/10 07:26:55;;;;;;;1.20;1.03;;;20.00;99.90;;;;;;5097382;28;20414;-53
2021/07/10 07:29:21;;;;;;;1.20;1.00;;;20.00;99.90;;;;;;5095852;28;20524;-54
2021/07/10 07:31:48;;;;;;;1.50;1.27;;;20.20;99.90;;;;;;5096284;28;20528;-55
2021/07/10 07:34:16;;;;;;;1.20;1.00;;;20.20;99.90;;;;;;5090510;28;20431;-54
2021/07/10 07:36:42;;;;;;;1.50;1.00;;;20.40;99.90;;;;;;5075164;28;20432;-56
2021/07/10 07:39:09;;;;;;;1.63;1.10;;;20.50;99.90;;;;;;5075228;28;20475;-57
2021/07/10 07:41:38;;;;;;;1.42;1.10;;;20.40;99.90;;;;;;5075992;28;20459;-56
2021/07/10 07:44:06;;;;;;;1.30;1.10;;;20.50;99.90;;;;;;5076536;28;20436;-57
2021/07/10 07:46:34;;;;;;;1.70;1.10;;;20.60;99.90;;;;;;5076372;28;20454;-58
2021/07/10 07:49:01;;;;;;;1.08;0.98;;;20.70;99.90;;;;;;5076100;28;20518;-56
2021/07/10 07:51:28;;;;;;;1.30;1.10;;;21.00;99.90;;;;;;5076522;28;20795;-56
2021/07/10 07:53:55;;;;;;;1.25;1.10;;;21.10;99.90;;;;;;5076575;28;20526;-54
2021/07/10 07:56:24;;;;;;;1.77;1.05;;;21.20;99.90;;;;;;5074484;28;20526;-55
2021/07/10 07:58:52;;;;;;;1.20;0.90;;;21.20;99.90;;;;;;5074948;28;20505;-57
2021/07/10 08:01:19;;;;;;;2.05;0.90;;;21.10;99.90;;;;;;5079405;28;20880;-57
2021/07/10 08:03:47;;;;;;;2.00;0.93;;;21.20;99.90;;;;;;5084639;28;20514;-54
2021/07/10 08:06:14;;;;;;;1.00;0.90;;;21.10;99.90;;;;;;5085929;28;20414;-52
2021/07/10 08:08:41;;;;;;;1.23;0.90;;;21.20;99.90;;;;;;5081752;28;20501;-54
2021/07/10 08:11:10;;;;;;;1.20;1.00;;;21.30;99.90;;;;;;5077902;28;20501;-54
2021/07/10 08:13:37;;;;;;;1.20;0.90;;;21.20;99.90;;;;;;5079104;28;20792;-52
2021/07/10 08:16:08;;;;;;;1.13;1.00;;;21.30;99.90;;;;;;5078405;28;20438;-54
2021/07/10 08:18:35;;;;;;;1.40;1.20;;;21.60;99.90;;;;;;5084678;28;20459;-54
2021/07/10 08:21:03;;;;;;;1.10;0.90;;;21.70;99.90;;;;;;5079233;28;20506;-55
2021/07/10 08:23:30;;;;;;;1.60;1.00;;;21.70;99.90;;;;;;5088579;28;20837;-54
2021/07/10 08:25:56;;;;;;;1.20;0.90;;;21.90;99.90;;;;;;5087883;28;20729;-55
2021/07/10 08:28:23;;;;;;;1.00;0.80;;;22.10;99.90;;;;;;5075926;28;20518;-54
2021/07/10 08:30:50;;;;;;;1.30;1.00;;;22.20;99.90;;;;;;5074632;28;20514;-56
2021/07/10 08:33:18;;;;;;;1.30;0.90;;;22.30;99.90;;;;;;5073096;28;20799;-55
2021/07/10 08:35:45;;;;;;;1.60;0.90;;;22.20;99.90;;;;;;5072992;28;20498;-56
2021/07/10 08:38:12;;;;;;;1.20;1.00;;;22.00;99.90;;;;;;5074481;28;20870;-55
2021/07/10 08:40:39;;;;;;;1.10;0.90;;;21.80;99.90;;;;;;5072170;28;20510;-54
2021/07/10 08:43:06;;;;;;;1.13;0.90;;;21.80;99.90;;;;;;5075656;28;20786;-54
2021/07/10 08:45:35;;;;;;;0.98;0.88;;;21.80;99.90;;;;;;5073442;28;20458;-54
2021/07/10 08:48:04;;;;;;;1.20;0.97;;;21.80;99.90;;;;;;5084682;28;20562;-54
2021/07/10 08:50:33;;;;;;;1.00;0.90;;;21.90;99.90;;;;;;5085541;28;20465;-54
2021/07/10 08:53:01;;;;;;;1.10;0.90;;;22.10;99.90;;;;;;5072992;28;20767;-55
2021/07/10 08:55:28;;;;;;;1.50;0.90;;;22.30;99.90;;;;;;5071943;28;20510;-55
2021/07/10 08:57:55;;;;;;;1.40;0.90;;;22.00;99.90;;;;;;5072018;28;20435;-55
2021/07/10 09:00:25;;;;;;;1.00;0.82;;;22.20;99.90;;;;;;5088988;28;20453;-56
2021/07/10 09:02:55;;;;;;;1.10;0.90;;;22.40;99.90;;;;;;5076351;28;20507;-51
2021/07/10 09:05:22;;;;;;;1.33;0.90;;;22.40;99.90;;;;;;5075206;28;20470;-52
2021/07/10 09:08:19;;;;;;;1.58;0.82;;;22.30;99.90;;;;;;5071525;28;20503;-52
2021/07/10 09:10:49;;;;;;;2.35;1.10;;;22.40;99.90;;;;;;5077866;28;20434;-55
2021/07/10 09:13:16;;;;;;;1.70;0.80;;;22.50;99.90;;;;;;5075910;28;20431;-53
2021/07/10 09:15:44;;;;;;;1.00;0.85;;;22.60;99.90;;;;;;5074541;28;20430;-54
2021/07/10 09:18:13;;;;;;;1.10;0.95;;;22.50;99.90;;;;;;5080768;28;20831;-54
2021/07/10 09:20:42;;;;;;;1.00;0.90;;;22.90;99.90;;;;;;5074066;28;20518;-54
2021/07/10 09:23:31;;;;;;;1.02;0.90;;;23.30;99.90;;;;;;5082373;28;20530;-56
2021/07/10 09:26:16;;;;;;;1.10;0.90;;;23.40;99.90;;;;;;5070936;28;20498;-54
2021/07/10 09:28:43;;;;;;;0.90;0.80;;;23.60;99.90;;;;;;5078732;28;20947;-55
2021/07/10 09:31:27;;;;;;;1.00;0.90;;;23.60;99.90;;;;;;5075574;28;20485;-53
2021/07/10 09:34:06;;;;;;;1.08;0.80;;;23.70;99.90;;;;;;5080266;28;20439;-56
2021/07/10 09:36:33;;;;;;;1.00;0.80;;;23.60;99.90;;;;;;5093496;28;20561;-57
2021/07/10 09:39:02;;;;;;;1.70;0.90;;;23.70;99.90;;;;;;5079564;28;20439;-53
2021/07/10 09:41:32;;;;;;;0.93;0.80;;;23.80;99.90;;;;;;5073732;28;20473;-54
2021/07/10 09:44:08;;;;;;;1.00;0.80;;;23.70;99.90;;;;;;5076405;28;20804;-53
2021/07/10 09:46:35;;;;;;;1.10;0.70;;;23.80;99.90;;;;;;5074293;28;20532;-53
2021/07/10 09:49:25;;;;;;;0.95;0.70;;;24.10;99.90;;;;;;5082964;28;20469;-55
2021/07/10 09:52:01;;;;;;;0.90;0.80;;;24.20;99.90;;;;;;5074312;28;20798;-57
2021/07/10 09:54:31;;;;;;;1.00;0.80;;;24.30;99.90;;;;;;5080483;28;20525;-54
2021/07/10 09:57:04;;;;;;;1.30;0.90;;;24.50;99.90;;;;;;5075751;28;20723;-56
2021/07/10 09:59:34;;;;;;;1.05;0.80;;;24.50;99.90;;;;;;5074734;28;20703;-56
2021/07/10 10:02:02;;;;;;;2.60;0.80;;;24.60;99.90;;;;;;5072450;28;20793;-56
2021/07/10 10:04:30;;;;;;;1.40;0.80;;;24.70;99.90;;;;;;5086814;28;20462;-55
2021/07/10 10:06:59;;;;;;;1.02;0.80;;;24.80;99.90;;;;;;5077001;28;20501;-55
2021/07/10 10:09:27;;;;;;;1.65;0.80;;;25.00;99.90;;;;;;5083614;28;20446;-55
2021/07/10 10:11:59;;;;;;;2.75;1.00;;;25.00;99.90;;;;;;5076643;28;20843;-54
2021/07/10 10:14:27;;;;;;;1.80;0.80;;;25.10;99.90;;;;;;5084882;28;20512;-53
2021/07/10 10:16:54;;;;;;;1.15;0.90;;;24.90;99.90;;;;;;5073337;28;20826;-52
2021/07/10 10:19:23;;;;;;;1.10;0.80;;;24.80;99.90;;;;;;5075045;28;20819;-53
2021/07/10 10:21:53;;;;;;;1.00;0.90;;;25.00;99.90;;;;;;5072315;28;20906;-55
2021/07/10 10:24:22;;;;;;;0.80;0.77;;;25.10;99.90;;;;;;5080530;28;20444;-52
2021/07/10 10:26:49;;;;;;;1.20;0.73;;;25.60;99.90;;;;;;5072560;28;20820;-53
2021/07/10 10:29:19;;;;;;;1.20;0.80;;;25.60;99.90;;;;;;5071632;28;20432;-54
2021/07/10 10:31:48;;;;;;;1.00;0.80;;;25.50;99.90;;;;;;5076701;28;20420;-50
2021/07/10 10:34:15;;;;;;;1.00;0.70;;;25.60;99.90;;;;;;5075028;28;20470;-54
2021/07/10 10:36:45;;;;;;;0.98;0.70;;;25.80;99.90;;;;;;5071789;28;20867;-53
2021/07/10 10:39:14;;;;;;;0.80;0.60;;;26.30;99.90;;;;;;5080732;28;20542;-55
2021/07/10 10:41:43;;;;;;;0.90;0.70;;;26.50;99.90;;;;;;5080926;28;21028;-51
2021/07/10 10:44:11;;;;;;;1.50;0.70;;;26.70;99.90;;;;;;5090541;28;20479;-52
2021/07/10 10:46:48;;;;;;;1.10;0.70;;;26.50;99.90;;;;;;5099238;28;20886;-51
2021/07/10 10:49:41;;;;;;;0.80;0.70;;;27.20;99.90;;;;;;5099301;28;20515;-51
2021/07/10 10:52:33;;;;;;;0.80;0.60;;;27.50;99.90;;;;;;5093532;28;20435;-52
2021/07/10 10:55:14;;;;;;;1.60;0.60;;;27.80;99.90;;;;;;5057871;28;20522;-54
2021/07/10 10:57:45;;;;;;;0.80;0.60;;;27.30;99.90;;;;;;5079402;28;20426;-54
2021/07/10 11:00:19;;;;;;;1.70;0.70;;;27.50;99.90;;;;;;5077595;28;20517;-53
2021/07/10 11:03:08;;;;;;;1.30;0.60;;;27.80;99.90;;;;;;5077289;28;21034;-54
2021/07/10 11:05:49;;;;;;;0.80;0.60;;;27.50;99.90;;;;;;5095788;28;20461;-52
2021/07/10 11:08:38;;;;;;;1.20;0.60;;;27.60;99.90;;;;;;5090397;28;20523;-56
2021/07/10 11:11:35;;;;;;;0.90;0.60;;;27.30;99.90;;;;;;5081734;28;20522;-55
2021/07/10 11:14:14;;;;;;;0.60;0.50;;;27.30;99.90;;;;;;5075170;28;20450;-58
2021/07/10 11:17:09;;;;;;;0.70;0.50;;;27.60;99.90;;;;;;5079375;28;20482;-59
2021/07/10 11:19:53;;;;;;;0.70;0.50;;;27.40;99.90;;;;;;5079111;28;20526;-60
2021/07/10 11:22:57;;;;;;;0.80;0.50;;;27.70;98.60;;;;;;5085549;28;20999;-59
2021/07/10 11:26:00;;;;;;;0.60;0.50;;;27.60;98.10;;;;;;5094161;28;20589;-59
2021/07/10 11:28:33;;;;;;;1.00;0.60;;;27.70;98.20;;;;;;5083787;28;20845;-59
2021/07/10 11:31:02;;;;;;;0.70;0.60;;;27.50;98.60;;;;;;5089447;28;20494;-59
2021/07/10 11:33:57;;;;;;;1.80;0.70;;;27.80;99.90;;;;;;5089808;28;20425;-59
2021/07/10 11:37:00;;;;;;;0.80;0.70;;;28.30;99.90;;;;;;5094757;28;20702;-60
2021/07/10 11:39:55;;;;;;;0.80;0.70;;;28.30;98.20;;;;;;5077946;28;20419;-60
2021/07/10 11:42:46;;;;;;;0.80;0.60;;;28.70;96.60;;;;;;5077424;28;20526;-59
2021/07/10 11:45:33;;;;;;;0.70;0.60;;;28.80;96.80;;;;;;5098309;28;20596;-59
2021/07/10 11:48:25;;;;;;;0.70;0.50;;;28.90;96.30;;;;;;5094877;28;20421;-59
2021/07/10 11:51:11;;;;;;;0.75;0.60;;;28.70;94.60;;;;;;5091459;28;20918;-59
2021/07/10 11:53:40;;;;;;;0.98;0.60;;;28.90;93.90;;;;;;5094433;28;20868;-59
2021/07/10 11:56:07;;;;;;;0.98;0.60;;;28.70;95.90;;;;;;5092487;28;20424;-59
2021/07/10 11:58:37;;;;;;;0.70;0.60;;;29.40;93.40;;;;;;5091395;28;20900;-59
2021/07/10 12:01:05;;;;;;;0.80;0.55;;;29.90;91.80;;;;;;5073280;28;20430;-61
2021/07/10 12:03:32;;;;;;;0.90;0.60;;;30.40;91.50;;;;;;5074618;28;20463;-59
2021/07/10 12:06:00;;;;;;;1.00;0.60;;;30.40;92.30;;;;;;5078452;28;20436;-59
2021/07/10 12:08:28;;;;;;;0.88;0.70;;;29.90;91.70;;;;;;5074280;28;20434;-60
2021/07/10 12:10:57;;;;;;;0.80;0.70;;;29.20;91.90;;;;;;5090279;28;20429;-60
2021/07/10 12:13:29;;;;;;;0.70;0.60;;;29.50;92.30;;;;;;5082916;28;20522;-61
2021/07/10 12:15:58;;;;;;;0.90;0.60;;;28.60;93.30;;;;;;5075726;28;20913;-60
2021/07/10 12:18:27;;;;;;;0.80;0.63;;;28.50;94.40;;;;;;5073266;28;20731;-60
2021/07/10 12:20:56;;;;;;;1.00;0.80;;;28.30;94.60;;;;;;5079121;28;20412;-59
2021/07/10 12:23:26;;;;;;;0.90;0.80;;;27.80;96.60;;;;;;5077853;28;20520;-59
2021/07/10 12:25:57;;;;;;;0.75;0.60;;;28.00;97.50;;;;;;5075057;28;20778;-59
2021/07/10 12:28:36;;;;;;;0.80;0.60;;;28.50;95.30;;;;;;5074245;28;20434;-59
2021/07/10 12:31:05;;;;;;;0.80;0.63;;;28.90;93.90;;;;;;5071455;28;20423;-59
2021/07/10 12:33:38;;;;;;;1.10;0.80;;;28.90;94.00;;;;;;5083251;28;20473;-59
2021/07/10 12:36:15;;;;;;;0.80;0.60;;;28.10;93.90;;;;;;5091019;28;20798;-58
2021/07/10 12:39:01;;;;;;;1.40;0.80;;;27.60;96.30;;;;;;5091690;28;20793;-59
2021/07/10 12:41:42;;;;;;;0.90;0.70;;;27.80;97.70;;;;;;5090359;28;20849;-59
2021/07/10 12:44:31;;;;;;;0.90;0.80;;;27.80;97.30;;;;;;5072674;28;20510;-58
2021/07/10 12:47:07;;;;;;;1.90;0.70;;;27.60;97.30;;;;;;5074732;28;20840;-61
2021/07/10 12:49:37;;;;;;;0.80;0.60;;;27.20;98.00;;;;;;5094504;28;20519;-58
2021/07/10 12:52:07;;;;;;;0.80;0.70;;;27.10;99.70;;;;;;5080721;28;20424;-59
2021/07/10 12:54:42;;;;;;;0.90;0.70;;;27.00;99.70;;;;;;5074613;28;20808;-57
2021/07/10 12:57:34;;;;;;;0.90;0.70;;;27.50;99.90;;;;;;5082311;28;20525;-58
2021/07/10 13:00:15;;;;;;;1.00;0.63;;;28.20;98.90;;;;;;5071756;28;20522;-59
2021/07/10 13:02:49;;;;;;;0.80;0.60;;;28.50;97.90;;;;;;5072539;28;20426;-59